• Join FlightAware (Why Join?)
  • Login
  • US Flag 
12:59PM EST


 

Airport Tracker/Info


-or-


 

Live Flight TrackerFlight Track Log ✈ N830QS ✈ 23-Jun-2013 ✈ KIWA - KSFO

Flight Track Log - Related Links

Times and Time Zones

All times are in EDT time to prevent confusion due to time zone crossing. See the N830QS flight status page for this flight to view local times or setup timezone preferences in your user account.

Time Position Orientation Groundspeed Altitude Reporting Facility
EDT Latitude Longitude Course Direction KTS MPH feet Rate Location/Type
01:48PM 33.3167 -111.6667 337° Northwest 170 196 1,800  Level Phoenix TRACON
01:49PM 33.3500 -111.6833 90° East 214 246 3,400 2,100 Climbing Phoenix TRACON
01:50PM 33.3500 -111.6333 90° East 203 234 5,200 2,340 Climbing Phoenix TRACON
01:51PM 33.3667 -111.5667 73° East 238 274 8,200 2,880 Climbing Phoenix TRACON
01:52PM 33.4333 -111.5833 348° North 230 265 11,100 1,980 Climbing Phoenix TRACON
01:53PM 33.4989 -111.5881 357° North 300 345 12,300 2,040 Climbing Albuquerque Center
01:54PM 33.5731 -111.6767 315° West 312 359 15,400 2,520 Climbing Albuquerque Center
01:55PM 33.6356 -111.7556 314° West 322 371 17,600 2,220 Climbing Albuquerque Center
01:56PM 33.6883 -111.8444 306° West 325 374 20,100 2,100 Climbing Albuquerque Center
01:57PM 33.7481 -111.9481 305° West 332 382 22,000 1,740 Climbing Albuquerque Center
01:58PM 33.7969 -112.0322 305° West 344 396 23,800 1,800 Climbing Albuquerque Center
01:59PM 33.8544 -112.1267 306° West 347 399 25,800 1,740 Climbing Albuquerque Center
02:00PM 33.9303 -112.2075 319° Northwest 361 415 27,500 1,800 Climbing Albuquerque Center
02:01PM 34.0097 -112.2783 324° Northwest 355 409 29,600 2,100 Climbing Albuquerque Center
02:02PM 34.1097 -112.3522 329° Northwest 350 403 31,900 1,860 Climbing Albuquerque Center
02:03PM 34.1956 -112.4106 331° Northwest 351 404 33,500 1,560 Climbing Albuquerque Center
02:04PM 34.2811 -112.4672 331° Northwest 351 404 35,200 1,500 Climbing Albuquerque Center
02:05PM 34.3628 -112.5244 330° Northwest 342 394 36,700 1,320 Climbing Albuquerque Center
02:06PM 34.4161 -112.6061 308° West 319 367 38,000 1,200 Climbing Albuquerque Center
02:07PM 34.4664 -112.7064 301° West 309 356 39,200 840 Climbing Albuquerque Center
02:08PM 34.5100 -112.7958 301° West 310 357 39,800 360 Climbing Albuquerque Center
02:09PM 34.5564 -112.8914 301° West 323 372 40,000 60 Climbing Albuquerque Center
02:10PM 34.6047 -112.9933 300° West 341 392 40,000  Level Albuquerque Center
02:11PM 34.6544 -113.0992 300° West 356 410 40,000  Level Albuquerque Center
02:12PM 34.7172 -113.2289 301° West 368 423 40,000  Level Albuquerque Center
02:14PM 34.7692 -113.3386 300° West 372 428 40,000  Level Albuquerque Center
02:15PM 34.8206 -113.4478 300° West 373 429 40,000  Level Albuquerque Center
02:16PM 34.8725 -113.5572 300° West 373 429 40,000  Level Albuquerque Center
02:17PM 34.9244 -113.6661 300° West 373 429 40,000  Level Albuquerque Center
02:18PM 34.9850 -113.7694 306° West 373 429 40,000  Level Albuquerque Center
02:19PM 35.0633 -113.8919 308° West 378 435 40,000  Level Albuquerque Center
02:20PM 35.1281 -113.9933 308° West 380 437 40,000  Level Albuquerque Center
02:21PM 35.1925 -114.0944 308° West 376 433 40,000  Level Albuquerque Center
02:22PM 35.2814 -114.2397 307° West 380 437 40,000  Level Los Angeles Center
02:23PM 35.3339 -114.3236 308° West 387 445 40,000  Level Los Angeles Center
02:24PM 35.4233 -114.4681 307° West 382 440 40,000  Level Los Angeles Center
02:25PM 35.4892 -114.5731 308° West 387 445 40,000  Level Los Angeles Center
02:26PM 35.5544 -114.6781 307° West 388 447 40,000  Level Los Angeles Center
02:27PM 35.6200 -114.7836 307° West 388 447 40,000  Level Los Angeles Center
02:28PM 35.6864 -114.8892 308° West 390 449 40,000  Level Los Angeles Center
02:29PM 35.7522 -114.9953 307° West 389 448 40,000  Level Los Angeles Center
02:30PM 35.8172 -115.1017 307° West 388 447 40,000  Level Los Angeles Center
02:32PM 35.8964 -115.2317 307° West 392 451 40,000  Level Los Angeles Center
02:33PM 35.9633 -115.3400 307° West 394 453 40,000  Level Los Angeles Center
02:34PM 36.0292 -115.4489 307° West 393 452 40,000  Level Los Angeles Center
02:35PM 36.1081 -115.5803 307° West 392 451 40,000  Level Los Angeles Center
02:36PM 36.1750 -115.6925 306° West 395 455 40,000  Level Los Angeles Center
02:37PM 36.2431 -115.8039 307° West 397 457 40,000  Level Los Angeles Center
02:38PM 36.3094 -115.9142 307° West 399 459 40,000  Level Los Angeles Center
02:39PM 36.3892 -116.0472 307° West 400 460 40,000  Level Los Angeles Center
02:40PM 36.4544 -116.1578 306° West 399 459 40,000  Level Los Angeles Center
02:41PM 36.5167 -116.2608 307° West 398 458 40,000  Level Los Angeles Center
02:42PM 36.5869 -116.3792 307° West 399 459 40,000  Level Los Angeles Center
02:43PM 36.6522 -116.4906 306° West 398 458 40,000  Level Los Angeles Center
02:44PM 36.7178 -116.6028 306° West 400 460 40,000  Level Los Angeles Center
02:45PM 36.7833 -116.7142 306° West 397 457 40,000  Level Los Angeles Center
02:46PM 36.8900 -116.8186 322° Northwest 409 471 40,000  Level Los Angeles Center
02:47PM 36.9847 -116.9006 325° Northwest 411 473 40,000  Level Los Angeles Center
02:48PM 37.0622 -116.9639 327° Northwest 413 475 40,000  Level Los Angeles Center
02:49PM 37.1764 -117.0606 326° Northwest 413 475 40,000  Level Los Angeles Center
02:50PM 37.2725 -117.1408 326° Northwest 414 476 40,000  Level Los Angeles Center
02:51PM 37.3681 -117.2231 326° Northwest 414 476 40,000  Level Los Angeles Center
02:52PM 37.4822 -117.3211 326° Northwest 413 475 40,000  Level Los Angeles Center
02:54PM 37.5744 -117.4086 323° Northwest 412 474 40,000  Level Los Angeles Center
02:54PM 37.6094 -117.4792 302° West 397 457 40,000  Level Oakland Center
02:55PM 37.6272 -117.6158 279° West 398 458 40,000  Level Oakland Center
02:56PM 37.6300 -117.7806 271° West 390 449 40,000  Level Oakland Center
02:57PM 37.6311 -117.9178 271° West 391 450 40,000  Level Oakland Center
02:58PM 37.6331 -118.0556 271° West 392 451 40,000  Level Oakland Center
02:59PM 37.6347 -118.1928 271° West 391 450 40,000  Level Oakland Center
03:00PM 37.6356 -118.3297 270° West 390 449 40,000  Level Oakland Center
03:01PM 37.6369 -118.4678 271° West 392 451 40,000  Level Oakland Center
03:02PM 37.6381 -118.6053 271° West 392 451 40,000  Level Oakland Center
03:03PM 37.6383 -118.7414 270° West 390 449 40,000  Level Oakland Center
03:04PM 37.6397 -118.9028 271° West 389 448 40,000  Level Oakland Center
03:05PM 37.6406 -119.0389 270° West 389 448 40,000  Level Oakland Center
03:07PM 37.6389 -119.1747 269° West 388 447 40,000  Level Oakland Center
03:08PM 37.6392 -119.3114 270° West 388 447 40,000  Level Oakland Center
03:09PM 37.6375 -119.4469 269° West 388 447 40,000  Level Oakland Center
03:10PM 37.6408 -119.5797 272° West 384 442 40,000 -60 Level Oakland Center
03:11PM 37.6406 -119.7158 270° West 387 445 39,900 -1,080 Descending Oakland Center
03:12PM 37.6381 -119.8514 269° West 387 445 37,900 -2,160 Descending Oakland Center
03:13PM 37.6375 -120.0078 270° West 371 427 35,500 -2,100 Descending Oakland Center
03:14PM 37.6367 -120.1378 270° West 370 426 33,600 -1,980 Descending Oakland Center
03:15PM 37.6356 -120.2711 269° West 378 435 31,500 -2,100 Descending Oakland Center
03:16PM 37.6342 -120.4078 269° West 386 444 29,400 -2,040 Descending Oakland Center
03:17PM 37.6328 -120.5444 269° West 386 444 27,400 -2,100 Descending Oakland Center
03:18PM 37.6333 -120.6833 270° West 375 432 25,400 -2,100 Descending Northern Cal TRACON
03:19PM 37.6333 -120.7833 270° West 358 412 23,700 -1,860 Descending Northern Cal TRACON
03:20PM 37.6333 -120.9000 270° West 351 404 21,900 -1,800 Descending Northern Cal TRACON
03:21PM 37.6167 -121.0333 261° West 339 390 20,100 -1,800 Descending Northern Cal TRACON
03:22PM 37.6000 -121.1500 260° West 343 395 18,400 -1,800 Descending Northern Cal TRACON
03:23PM 37.6000 -121.2667 270° West 327 376 16,500 -1,800 Descending Northern Cal TRACON
03:24PM 37.5833 -121.3667 258° West 312 359 14,800 -1,620 Descending Northern Cal TRACON
03:24PM 37.5667 -121.4500 256° West 298 343 13,500 -1,440 Descending Northern Cal TRACON
03:26PM 37.5667 -121.5500 270° West 235 270 12,000 -1,200 Descending Northern Cal TRACON
03:26PM 37.5500 -121.6333 256° West 239 275 11,100 -1,020 Descending Northern Cal TRACON
03:27PM 37.6000 -121.7000 313° West 250 288 10,100 -600 Descending Northern Cal TRACON
03:28PM 37.6333 -121.7667 302° West 244 281 10,000 -60 Descending Northern Cal TRACON
03:30PM 37.6833 -121.8333 313° West 242 278 10,000 -300 Level Northern Cal TRACON
03:30PM 37.7000 -121.9167 284° West 244 281 9,500 -420 Descending Northern Cal TRACON
03:32PM 37.6558 -122.0047 238° Southwest 240 276 9,000 -240 Descending Oakland Center
03:33PM 37.5864 -121.9886 170° South 247 284 9,000  Level Oakland Center
03:34PM 37.5633 -121.9181 112° Southeast 221 254 9,000  Level Oakland Center
03:35PM 37.5383 -121.8494 115° Southeast 218 251 9,000  Level Oakland Center
03:36PM 37.5136 -121.7794 114° Southeast 219 252 9,000  Level Oakland Center
03:37PM 37.4803 -121.7186 125° Southeast 235 270 9,000  Level Oakland Center
03:38PM 37.4258 -121.7392 197° South 215 247 9,000 -240 Level Oakland Center
03:39PM 37.4206 -121.8086 265° West 203 234 8,600 -480 Descending Oakland Center
03:40PM 37.4167 -121.9000 267° West 184 212 8,000 -660 Descending Northern Cal TRACON
03:41PM 37.4333 -121.9500 293° West 174 200 7,300 -900 Descending Northern Cal TRACON
03:42PM 37.4667 -122.0000 310° West 164 189 6,300 -1,080 Descending Northern Cal TRACON
03:43PM 37.4500 -122.0500 247° West 164 189 5,200 -900 Descending Northern Cal TRACON
03:44PM 37.4833 -122.0667 338° Northwest 156 180 4,600 -600 Descending Northern Cal TRACON
03:45PM 37.5000 -122.1000 302° West 148 170 4,000 -780 Descending Northern Cal TRACON
03:46PM 37.5333 -122.1500 310° West 154 177 3,100 -900 Descending Northern Cal TRACON
03:47PM 37.5500 -122.2000 293° West 154 177 2,300 -660 Descending Northern Cal TRACON
03:48PM 37.5667 -122.2500 293° West 145 167 1,800 -600 Descending Northern Cal TRACON
03:49PM 37.5833 -122.2833 302° West 143 165 1,100 -660 Descending Northern Cal TRACON
03:50PM 37.6000 -122.3333 293° West 145 167 500 -420 Descending Northern Cal TRACON
03:52PM 37.6206 -122.3797 299° West 143 165 200 -300 Descending Oakland Center